sensor_id;sensor_type;location;lat;lon;timestamp;P1;P2;P0
82823;PMS5003;72575;46.834;-71.234;2023-11-18T00:02:03;44.2;37.85;23.3
82823;PMS5003;72575;46.834;-71.234;2023-11-18T00:04:28;44.3;38.25;23.95
82823;PMS5003;72575;46.834;-71.234;2023-11-18T00:06:53;48.4;41.05;23.8
82823;PMS5003;72575;46.834;-71.234;2023-11-18T00:09:19;47.19;40.05;22.67
82823;PMS5003;72575;46.834;-71.234;2023-11-18T00:11:45;39.2;35.4;21.6
82823;PMS5003;72575;46.834;-71.234;2023-11-18T00:14:10;49.84;41.74;24.11
82823;PMS5003;72575;46.834;-71.234;2023-11-18T00:16:35;44.29;38.38;23.48
82823;PMS5003;72575;46.834;-71.234;2023-11-18T00:19:03;54.05;44.63;25.05
82823;PMS5003;72575;46.834;-71.234;2023-11-18T00:21:28;44.95;37.76;22.81
82823;PMS5003;72575;46.834;-71.234;2023-11-18T00:23:53;41.74;37.05;21.53
82823;PMS5003;72575;46.834;-71.234;2023-11-18T00:26:20;47.33;38.76;22.9
82823;PMS5003;72575;46.834;-71.234;2023-11-18T00:28:44;51.35;42.4;24.55
82823;PMS5003;72575;46.834;-71.234;2023-11-18T00:31:09;51.5;42.65;24.5
82823;PMS5003;72575;46.834;-71.234;2023-11-18T00:33:35;51.05;42.95;25.1
82823;PMS5003;72575;46.834;-71.234;2023-11-18T00:36:00;52.4;44.45;25.55
82823;PMS5003;72575;46.834;-71.234;2023-11-18T00:38:26;50.32;42.11;23.74
82823;PMS5003;72575;46.834;-71.234;2023-11-18T00:40:52;48.47;41.37;24.63
82823;PMS5003;72575;46.834;-71.234;2023-11-18T00:43:19;49.25;41.2;23.15
82823;PMS5003;72575;46.834;-71.234;2023-11-18T00:45:42;51.58;43.95;24.16
82823;PMS5003;72575;46.834;-71.234;2023-11-18T00:48:09;51;43.2;25.5
82823;PMS5003;72575;46.834;-71.234;2023-11-18T00:50:35;48.89;41.11;24
82823;PMS5003;72575;46.834;-71.234;2023-11-18T00:53:00;52.1;42.9;25.25
82823;PMS5003;72575;46.834;-71.234;2023-11-18T00:55:25;50.2;42.5;24.8
82823;PMS5003;72575;46.834;-71.234;2023-11-18T00:57:49;44.4;38.3;22.85
82823;PMS5003;72575;46.834;-71.234;2023-11-18T01:00:18;33.62;31.57;17.57
82823;PMS5003;72575;46.834;-71.234;2023-11-18T01:02:40;36.55;31.8;18.05
82823;PMS5003;72575;46.834;-71.234;2023-11-18T01:05:07;14.24;13.52;8
82823;PMS5003;72575;46.834;-71.234;2023-11-18T01:07:33;9.86;9.86;7.33
82823;PMS5003;72575;46.834;-71.234;2023-11-18T01:09:58;5.67;5.67;4.24
82823;PMS5003;72575;46.834;-71.234;2023-11-18T01:12:25;3.24;3.14;2.76
82823;PMS5003;72575;46.834;-71.234;2023-11-18T01:14:57;6.09;6.09;4
82823;PMS5003;72575;46.834;-71.234;2023-11-18T01:17:24;2.55;2.55;2
82823;PMS5003;72575;46.834;-71.234;2023-11-18T01:19:47;3.1;3.1;1.9
82823;PMS5003;72575;46.834;-71.234;2023-11-18T01:22:14;2.9;2.76;2
82823;PMS5003;72575;46.834;-71.234;2023-11-18T01:24:39;3;3;2
82823;PMS5003;72575;46.834;-71.234;2023-11-18T01:27:04;2.95;2.95;1.33
82823;PMS5003;72575;46.834;-71.234;2023-11-18T01:29:30;3.52;2.81;2
82823;PMS5003;72575;46.834;-71.234;2023-11-18T01:31:57;2;2;1
82823;PMS5003;72575;46.834;-71.234;2023-11-18T01:34:22;4.33;3.81;3
82823;PMS5003;72575;46.834;-71.234;2023-11-18T01:36:45;3.86;3.86;3.05
82823;PMS5003;72575;46.834;-71.234;2023-11-18T01:39:12;5.48;4.67;2.38
82823;PMS5003;72575;46.834;-71.234;2023-11-18T01:41:36;8.86;8.71;6
82823;PMS5003;72575;46.834;-71.234;2023-11-18T01:44:04;4.52;4.52;3.48
82823;PMS5003;72575;46.834;-71.234;2023-11-18T01:46:29;5.62;5.1;3.24
82823;PMS5003;72575;46.834;-71.234;2023-11-18T01:48:54;10.29;10.29;6.81
82823;PMS5003;72575;46.834;-71.234;2023-11-18T01:51:18;10.05;9.25;6.4
82823;PMS5003;72575;46.834;-71.234;2023-11-18T01:53:46;9.25;8.8;5.6
82823;PMS5003;72575;46.834;-71.234;2023-11-18T01:56:11;6.65;6.65;5
82823;PMS5003;72575;46.834;-71.234;2023-11-18T01:58:36;6;6;3.65
82823;PMS5003;72575;46.834;-71.234;2023-11-18T02:01:01;6.85;5.95;3.35
82823;PMS5003;72575;46.834;-71.234;2023-11-18T02:03:26;6;5.25;3.4
82823;PMS5003;72575;46.834;-71.234;2023-11-18T02:05:52;8.14;7.71;5.67
82823;PMS5003;72575;46.834;-71.234;2023-11-18T02:08:17;8.55;8.55;6.95
82823;PMS5003;72575;46.834;-71.234;2023-11-18T02:10:45;6.7;6.65;4.5
82823;PMS5003;72575;46.834;-71.234;2023-11-18T02:13:10;6.25;6.25;4
82823;PMS5003;72575;46.834;-71.234;2023-11-18T02:15:34;7.45;7.35;4
82823;PMS5003;72575;46.834;-71.234;2023-11-18T02:17:59;6.55;6.55;4
82823;PMS5003;72575;46.834;-71.234;2023-11-18T02:20:24;10.25;8.2;4.8
82823;PMS5003;72575;46.834;-71.234;2023-11-18T02:22:49;6.24;5.81;3
82823;PMS5003;72575;46.834;-71.234;2023-11-18T02:25:15;8.05;7.95;4.8
82823;PMS5003;72575;46.834;-71.234;2023-11-18T02:27:39;9.65;9.65;6.65
82823;PMS5003;72575;46.834;-71.234;2023-11-18T02:30:07;7;6.25;3.6
82823;PMS5003;72575;46.834;-71.234;2023-11-18T02:32:31;5.35;5.35;2.85
82823;PMS5003;72575;46.834;-71.234;2023-11-18T02:34:58;8.8;7.2;4.35
82823;PMS5003;72575;46.834;-71.234;2023-11-18T02:37:21;7.5;6.65;4
82823;PMS5003;72575;46.834;-71.234;2023-11-18T02:39:49;10.1;9.24;5
82823;PMS5003;72575;46.834;-71.234;2023-11-18T02:42:12;6.3;5.9;4
82823;PMS5003;72575;46.834;-71.234;2023-11-18T02:44:37;8.25;8.25;5.45
82823;PMS5003;72575;46.834;-71.234;2023-11-18T02:47:03;3.48;3.48;2.38
82823;PMS5003;72575;46.834;-71.234;2023-11-18T02:49:27;5.05;5.05;3.19
82823;PMS5003;72575;46.834;-71.234;2023-11-18T02:51:54;6.7;6.45;4.9
82823;PMS5003;72575;46.834;-71.234;2023-11-18T02:54:17;5.35;4.4;3.05
82823;PMS5003;72575;46.834;-71.234;2023-11-18T02:56:45;5.81;5.81;4
82823;PMS5003;72575;46.834;-71.234;2023-11-18T02:59:10;7.75;7.75;5.3
82823;PMS5003;72575;46.834;-71.234;2023-11-18T03:01:35;12.25;11.65;5.1
82823;PMS5003;72575;46.834;-71.234;2023-11-18T03:04:00;6.35;6.25;4.4
82823;PMS5003;72575;46.834;-71.234;2023-11-18T03:06:26;6.8;6.8;4.65
82823;PMS5003;72575;46.834;-71.234;2023-11-18T03:08:50;5.6;5.6;3
82823;PMS5003;72575;46.834;-71.234;2023-11-18T03:11:17;7;7;4.95
82823;PMS5003;72575;46.834;-71.234;2023-11-18T03:13:43;6.14;6.14;4
82823;PMS5003;72575;46.834;-71.234;2023-11-18T03:16:09;4.2;4.2;3.2
82823;PMS5003;72575;46.834;-71.234;2023-11-18T03:18:34;4.1;3.5;2.8
82823;PMS5003;72575;46.834;-71.234;2023-11-18T03:20:59;2.8;2.8;1.65
82823;PMS5003;72575;46.834;-71.234;2023-11-18T03:23:24;11.15;9.05;5.35
82823;PMS5003;72575;46.834;-71.234;2023-11-18T03:25:49;4.95;4.4;3.65
82823;PMS5003;72575;46.834;-71.234;2023-11-18T03:28:15;6.3;6.3;4.9
82823;PMS5003;72575;46.834;-71.234;2023-11-18T03:30:40;4.62;4.62;2.14
82823;PMS5003;72575;46.834;-71.234;2023-11-18T03:33:04;4.2;4.2;2.8
82823;PMS5003;72575;46.834;-71.234;2023-11-18T03:35:32;5;5;3.35
82823;PMS5003;72575;46.834;-71.234;2023-11-18T03:37:57;4.25;4.25;3.25
82823;PMS5003;72575;46.834;-71.234;2023-11-18T03:40:21;3.95;3.95;2
82823;PMS5003;72575;46.834;-71.234;2023-11-18T03:42:46;4.75;3.95;2.5
82823;PMS5003;72575;46.834;-71.234;2023-11-18T03:45:11;3.65;3.65;2
82823;PMS5003;72575;46.834;-71.234;2023-11-18T03:47:37;4.67;4.67;2.52
82823;PMS5003;72575;46.834;-71.234;2023-11-18T03:50:04;4;3.65;2.4
82823;PMS5003;72575;46.834;-71.234;2023-11-18T03:52:29;5.35;4.6;2.5
82823;PMS5003;72575;46.834;-71.234;2023-11-18T03:54:55;3.65;3.65;2
82823;PMS5003;72575;46.834;-71.234;2023-11-18T03:57:19;5.8;5;4
82823;PMS5003;72575;46.834;-71.234;2023-11-18T03:59:45;2.8;2.8;1.95
82823;PMS5003;72575;46.834;-71.234;2023-11-18T04:02:09;2.5;2.5;2
82823;PMS5003;72575;46.834;-71.234;2023-11-18T04:04:37;3.24;3.24;1.95
82823;PMS5003;72575;46.834;-71.234;2023-11-18T04:07:00;2.8;2.8;1.8
82823;PMS5003;72575;46.834;-71.234;2023-11-18T04:09:27;2.65;2.65;0.8
82823;PMS5003;72575;46.834;-71.234;2023-11-18T04:11:53;1.35;1.1;0.5
82823;PMS5003;72575;46.834;-71.234;2023-11-18T04:14:18;1;0.5;0.05
82823;PMS5003;72575;46.834;-71.234;2023-11-18T04:16:44;1.1;1.1;1
82823;PMS5003;72575;46.834;-71.234;2023-11-18T04:19:07;3.15;2.9;1.1
82823;PMS5003;72575;46.834;-71.234;2023-11-18T04:21:35;2.24;2.14;1
82823;PMS5003;72575;46.834;-71.234;2023-11-18T04:23:57;1.5;1.5;1
82823;PMS5003;72575;46.834;-71.234;2023-11-18T04:26:25;4.6;4.6;2
82823;PMS5003;72575;46.834;-71.234;2023-11-18T04:28:50;3.8;3.1;2
82823;PMS5003;72575;46.834;-71.234;2023-11-18T04:31:15;1;1;1
82823;PMS5003;72575;46.834;-71.234;2023-11-18T04:33:40;1.35;1.35;0.6
82823;PMS5003;72575;46.834;-71.234;2023-11-18T04:36:05;0.8;0.8;0.35
82823;PMS5003;72575;46.834;-71.234;2023-11-18T04:38:32;0;0;0
82823;PMS5003;72575;46.834;-71.234;2023-11-18T04:40:56;0;0;0
82823;PMS5003;72575;46.834;-71.234;2023-11-18T04:43:20;0.5;0.5;0
82823;PMS5003;72575;46.834;-71.234;2023-11-18T04:45:47;0;0;0
82823;PMS5003;72575;46.834;-71.234;2023-11-18T04:48:12;0.5;0;0
82823;PMS5003;72575;46.834;-71.234;2023-11-18T04:50:39;0.35;0.35;0
82823;PMS5003;72575;46.834;-71.234;2023-11-18T04:53:02;1;1;0
82823;PMS5003;72575;46.834;-71.234;2023-11-18T04:55:31;0.33;0.33;0
82823;PMS5003;72575;46.834;-71.234;2023-11-18T04:57:56;0;0;0
82823;PMS5003;72575;46.834;-71.234;2023-11-18T05:00:22;0;0;0
82823;PMS5003;72575;46.834;-71.234;2023-11-18T05:02:49;0.5;0.5;0
82823;PMS5003;72575;46.834;-71.234;2023-11-18T05:05:12;0.1;0.1;0
82823;PMS5003;72575;46.834;-71.234;2023-11-18T05:07:39;0;0;0
82823;PMS5003;72575;46.834;-71.234;2023-11-18T05:10:02;0.35;0.35;0
82823;PMS5003;72575;46.834;-71.234;2023-11-18T05:12:32;0.86;0.67;0.1
82823;PMS5003;72575;46.834;-71.234;2023-11-18T05:14:56;0.14;0.14;0.1
82823;PMS5003;72575;46.834;-71.234;2023-11-18T05:17:24;0;0;0
82823;PMS5003;72575;46.834;-71.234;2023-11-18T05:19:50;0.5;0.5;0
82823;PMS5003;72575;46.834;-71.234;2023-11-18T05:22:22;0.86;0.76;0
82823;PMS5003;72575;46.834;-71.234;2023-11-18T05:24:47;0.1;0.1;0
82823;PMS5003;72575;46.834;-71.234;2023-11-18T05:27:14;0;0;0
82823;PMS5003;72575;46.834;-71.234;2023-11-18T05:29:54;0;0;0
82823;PMS5003;72575;46.834;-71.234;2023-11-18T05:32:21;0;0;0
82823;PMS5003;72575;46.834;-71.234;2023-11-18T05:35:00;0;0;0
82823;PMS5003;72575;46.834;-71.234;2023-11-18T05:37:25;0;0;0
82823;PMS5003;72575;46.834;-71.234;2023-11-18T05:39:57;0;0;0
82823;PMS5003;72575;46.834;-71.234;2023-11-18T05:42:27;0;0;0
82823;PMS5003;72575;46.834;-71.234;2023-11-18T05:45:13;0;0;0
82823;PMS5003;72575;46.834;-71.234;2023-11-18T05:47:36;0.33;0.33;0
82823;PMS5003;72575;46.834;-71.234;2023-11-18T05:50:02;1;1;0
82823;PMS5003;72575;46.834;-71.234;2023-11-18T05:52:29;0.65;0.65;0
82823;PMS5003;72575;46.834;-71.234;2023-11-18T05:54:53;0;0;0
82823;PMS5003;72575;46.834;-71.234;2023-11-18T05:57:20;0;0;0
82823;PMS5003;72575;46.834;-71.234;2023-11-18T05:59:45;0;0;0
82823;PMS5003;72575;46.834;-71.234;2023-11-18T06:02:11;0;0;0
82823;PMS5003;72575;46.834;-71.234;2023-11-18T06:04:37;0;0;0
82823;PMS5003;72575;46.834;-71.234;2023-11-18T06:07:02;0;0;0
82823;PMS5003;72575;46.834;-71.234;2023-11-18T06:09:27;0;0;0
82823;PMS5003;72575;46.834;-71.234;2023-11-18T06:11:52;0;0;0
82823;PMS5003;72575;46.834;-71.234;2023-11-18T06:14:16;0;0;0
82823;PMS5003;72575;46.834;-71.234;2023-11-18T06:16:41;0;0;0
82823;PMS5003;72575;46.834;-71.234;2023-11-18T06:19:08;0;0;0
82823;PMS5003;72575;46.834;-71.234;2023-11-18T06:21:37;0.2;0.2;0
82823;PMS5003;72575;46.834;-71.234;2023-11-18T06:24:00;0;0;0
82823;PMS5003;72575;46.834;-71.234;2023-11-18T06:26:28;2;1;0
82823;PMS5003;72575;46.834;-71.234;2023-11-18T06:28:52;0.25;0.25;0
82823;PMS5003;72575;46.834;-71.234;2023-11-18T06:31:18;0.25;0.25;0
82823;PMS5003;72575;46.834;-71.234;2023-11-18T06:33:42;0.05;0.05;0
82823;PMS5003;72575;46.834;-71.234;2023-11-18T06:36:16;0;0;0
82823;PMS5003;72575;46.834;-71.234;2023-11-18T06:38:35;0;0;0
82823;PMS5003;72575;46.834;-71.234;2023-11-18T06:40:58;0.75;0;0
82823;PMS5003;72575;46.834;-71.234;2023-11-18T06:43:24;0;0;0
82823;PMS5003;72575;46.834;-71.234;2023-11-18T06:45:50;1;1;0
82823;PMS5003;72575;46.834;-71.234;2023-11-18T06:48:15;0;0;0
82823;PMS5003;72575;46.834;-71.234;2023-11-18T06:50:39;0;0;0
82823;PMS5003;72575;46.834;-71.234;2023-11-18T06:53:05;0;0;0
82823;PMS5003;72575;46.834;-71.234;2023-11-18T06:55:32;0.65;0.65;0
82823;PMS5003;72575;46.834;-71.234;2023-11-18T06:57:56;0;0;0
82823;PMS5003;72575;46.834;-71.234;2023-11-18T07:00:23;0;0;0
82823;PMS5003;72575;46.834;-71.234;2023-11-18T07:02:47;0.2;0;0
82823;PMS5003;72575;46.834;-71.234;2023-11-18T07:05:13;0;0;0
82823;PMS5003;72575;46.834;-71.234;2023-11-18T07:07:38;0;0;0
82823;PMS5003;72575;46.834;-71.234;2023-11-18T07:10:04;0.71;0;0
82823;PMS5003;72575;46.834;-71.234;2023-11-18T07:12:31;0.2;0.2;0
82823;PMS5003;72575;46.834;-71.234;2023-11-18T07:14:55;0.35;0.35;0
82823;PMS5003;72575;46.834;-71.234;2023-11-18T07:17:20;0.8;0;0
82823;PMS5003;72575;46.834;-71.234;2023-11-18T07:19:44;0;0;0
82823;PMS5003;72575;46.834;-71.234;2023-11-18T07:22:11;1.25;0.55;0
82823;PMS5003;72575;46.834;-71.234;2023-11-18T07:24:35;0;0;0
82823;PMS5003;72575;46.834;-71.234;2023-11-18T07:27:04;0.38;0.38;0
82823;PMS5003;72575;46.834;-71.234;2023-11-18T07:29:29;0;0;0
82823;PMS5003;72575;46.834;-71.234;2023-11-18T07:31:54;0;0;0
82823;PMS5003;72575;46.834;-71.234;2023-11-18T07:34:21;0;0;0
82823;PMS5003;72575;46.834;-71.234;2023-11-18T07:36:46;0.14;0.14;0
82823;PMS5003;72575;46.834;-71.234;2023-11-18T07:39:10;2.05;1.1;0.95
82823;PMS5003;72575;46.834;-71.234;2023-11-18T07:41:36;1.33;1.33;0.9
82823;PMS5003;72575;46.834;-71.234;2023-11-18T07:44:01;0.68;0.68;0.55
82823;PMS5003;72575;46.834;-71.234;2023-11-18T07:46:28;2.38;1;0.76
82823;PMS5003;72575;46.834;-71.234;2023-11-18T07:48:53;2.1;1.24;0.1
82823;PMS5003;72575;46.834;-71.234;2023-11-18T07:51:17;1.24;1.24;0.67
82823;PMS5003;72575;46.834;-71.234;2023-11-18T07:53:44;1;1;0.48
82823;PMS5003;72575;46.834;-71.234;2023-11-18T07:56:08;1;1;0
82823;PMS5003;72575;46.834;-71.234;2023-11-18T07:58:34;0.65;0.65;0.1
82823;PMS5003;72575;46.834;-71.234;2023-11-18T08:01:00;0.68;0.68;0.14
82823;PMS5003;72575;46.834;-71.234;2023-11-18T08:03:25;0.1;0.1;0.1
82823;PMS5003;72575;46.834;-71.234;2023-11-18T08:05:51;0.6;0.6;0
82823;PMS5003;72575;46.834;-71.234;2023-11-18T08:08:16;0.1;0.1;0
82823;PMS5003;72575;46.834;-71.234;2023-11-18T08:10:42;0.2;0;0
82823;PMS5003;72575;46.834;-71.234;2023-11-18T08:13:06;1;0.6;0
82823;PMS5003;72575;46.834;-71.234;2023-11-18T08:15:32;1;1;0.1
82823;PMS5003;72575;46.834;-71.234;2023-11-18T08:17:59;1.48;1.48;1
82823;PMS5003;72575;46.834;-71.234;2023-11-18T08:20:22;1.1;1.1;0.2
82823;PMS5003;72575;46.834;-71.234;2023-11-18T08:22:48;1.5;1.5;0.5
82823;PMS5003;72575;46.834;-71.234;2023-11-18T08:25:13;15.67;14.48;6.67
82823;PMS5003;72575;46.834;-71.234;2023-11-18T08:27:39;23.86;20.52;9.9
82823;PMS5003;72575;46.834;-71.234;2023-11-18T08:30:04;13.81;12.24;6.71
82823;PMS5003;72575;46.834;-71.234;2023-11-18T08:32:31;10.19;8.81;4.95
82823;PMS5003;72575;46.834;-71.234;2023-11-18T08:34:56;5.36;4.95;2.09
82823;PMS5003;72575;46.834;-71.234;2023-11-18T08:37:21;7.95;7.43;3
82823;PMS5003;72575;46.834;-71.234;2023-11-18T08:39:45;1.95;1.95;0.52
82823;PMS5003;72575;46.834;-71.234;2023-11-18T08:42:11;22.15;19.85;8.4
82823;PMS5003;72575;46.834;-71.234;2023-11-18T08:44:37;10.52;8.38;3.9
82823;PMS5003;72575;46.834;-71.234;2023-11-18T08:47:02;11.81;11.71;5.48
82823;PMS5003;72575;46.834;-71.234;2023-11-18T08:49:29;5.1;4.05;1.67
82823;PMS5003;72575;46.834;-71.234;2023-11-18T08:51:55;38.18;33.14;17.55
82823;PMS5003;72575;46.834;-71.234;2023-11-18T08:54:20;2.33;2.33;1.9
82823;PMS5003;72575;46.834;-71.234;2023-11-18T08:56:45;3;2.33;1.1
82823;PMS5003;72575;46.834;-71.234;2023-11-18T08:59:10;1.95;1.9;1
82823;PMS5003;72575;46.834;-71.234;2023-11-18T09:14:45;1.9;1.9;1
82823;PMS5003;72575;46.834;-71.234;2023-11-18T09:14:58;2.77;2.55;1
82823;PMS5003;72575;46.834;-71.234;2023-11-18T09:15:23;1.32;1.32;1
82823;PMS5003;72575;46.834;-71.234;2023-11-18T09:15:37;0.41;0.41;0.41
82823;PMS5003;72575;46.834;-71.234;2023-11-18T09:15:49;0.9;0.9;0
82823;PMS5003;72575;46.834;-71.234;2023-11-18T09:15:56;2;1.59;0.86
82823;PMS5003;72575;46.834;-71.234;2023-11-18T09:18:08;0.52;0.52;0.38
82823;PMS5003;72575;46.834;-71.234;2023-11-18T09:20:34;10.64;10.23;4.41
82823;PMS5003;72575;46.834;-71.234;2023-11-18T09:22:59;9.05;9.05;3.43
82823;PMS5003;72575;46.834;-71.234;2023-11-18T09:25:25;3;2.68;1.82
82823;PMS5003;72575;46.834;-71.234;2023-11-18T09:27:50;4.7;4.2;2.2
82823;PMS5003;72575;46.834;-71.234;2023-11-18T09:30:15;14.48;14;7.38
82823;PMS5003;72575;46.834;-71.234;2023-11-18T09:32:39;14.24;14;8.67
82823;PMS5003;72575;46.834;-71.234;2023-11-18T09:35:07;8.38;6.81;3
82823;PMS5003;72575;46.834;-71.234;2023-11-18T09:37:30;6.24;4.86;3.24
82823;PMS5003;72575;46.834;-71.234;2023-11-18T09:39:58;5.76;5.76;3
82823;PMS5003;72575;46.834;-71.234;2023-11-18T09:42:21;5.18;4.14;3.18
82823;PMS5003;72575;46.834;-71.234;2023-11-18T09:44:48;3.1;3;2
82823;PMS5003;72575;46.834;-71.234;2023-11-18T09:47:12;6.62;5.62;2
82823;PMS5003;72575;46.834;-71.234;2023-11-18T09:49:40;2.8;2.35;1.5
82823;PMS5003;72575;46.834;-71.234;2023-11-18T09:52:04;2;1.9;1
82823;PMS5003;72575;46.834;-71.234;2023-11-18T09:54:30;1.55;1.55;0.95
82823;PMS5003;72575;46.834;-71.234;2023-11-18T09:56:56;2.33;2.33;1.33
82823;PMS5003;72575;46.834;-71.234;2023-11-18T09:59:21;0.81;0.67;0
82823;PMS5003;72575;46.834;-71.234;2023-11-18T10:01:47;0.5;0;0
82823;PMS5003;72575;46.834;-71.234;2023-11-18T10:04:10;0;0;0
82823;PMS5003;72575;46.834;-71.234;2023-11-18T10:06:36;0;0;0
82823;PMS5003;72575;46.834;-71.234;2023-11-18T10:09:00;0.9;0.9;0
82823;PMS5003;72575;46.834;-71.234;2023-11-18T10:11:25;0;0;0
82823;PMS5003;72575;46.834;-71.234;2023-11-18T10:13:53;1;1;0
82823;PMS5003;72575;46.834;-71.234;2023-11-18T10:16:17;1;1;0
82823;PMS5003;72575;46.834;-71.234;2023-11-18T10:18:43;0.9;0.9;0
82823;PMS5003;72575;46.834;-71.234;2023-11-18T10:21:09;0.7;0.7;0
82823;PMS5003;72575;46.834;-71.234;2023-11-18T10:23:35;0.2;0.2;0
82823;PMS5003;72575;46.834;-71.234;2023-11-18T10:25:58;0.8;0.8;0.2
82823;PMS5003;72575;46.834;-71.234;2023-11-18T10:28:23;1;0.4;0
82823;PMS5003;72575;46.834;-71.234;2023-11-18T10:30:48;0.35;0.35;0
82823;PMS5003;72575;46.834;-71.234;2023-11-18T10:33:17;0.67;0.67;0
82823;PMS5003;72575;46.834;-71.234;2023-11-18T10:35:39;1;1;0.9
82823;PMS5003;72575;46.834;-71.234;2023-11-18T10:38:05;2.57;2.48;2
82823;PMS5003;72575;46.834;-71.234;2023-11-18T10:40:31;8.55;8.55;4.15
82823;PMS5003;72575;46.834;-71.234;2023-11-18T10:42:57;19.24;17.57;9.38
82823;PMS5003;72575;46.834;-71.234;2023-11-18T10:45:23;0.33;0.24;0
82823;PMS5003;72575;46.834;-71.234;2023-11-18T10:47:48;0.95;0.95;0.81
82823;PMS5003;72575;46.834;-71.234;2023-11-18T10:50:14;1;1;0
82823;PMS5003;72575;46.834;-71.234;2023-11-18T10:52:38;0;0;0
82823;PMS5003;72575;46.834;-71.234;2023-11-18T10:55:04;0.9;0.9;0.38
82823;PMS5003;72575;46.834;-71.234;2023-11-18T10:57:29;0.62;0.62;0
82823;PMS5003;72575;46.834;-71.234;2023-11-18T11:00:01;0;0;0
82823;PMS5003;72575;46.834;-71.234;2023-11-18T11:02:21;0;0;0
82823;PMS5003;72575;46.834;-71.234;2023-11-18T11:04:44;0.81;0.81;0
82823;PMS5003;72575;46.834;-71.234;2023-11-18T11:07:11;1.82;1;0
82823;PMS5003;72575;46.834;-71.234;2023-11-18T11:09:36;0.9;0.9;0
82823;PMS5003;72575;46.834;-71.234;2023-11-18T11:12:00;0.81;0.81;0.1
82823;PMS5003;72575;46.834;-71.234;2023-11-18T11:14:29;0;0;0
82823;PMS5003;72575;46.834;-71.234;2023-11-18T11:16:54;0.52;0.52;0.24
82823;PMS5003;72575;46.834;-71.234;2023-11-18T11:19:20;0.62;0.62;0
82823;PMS5003;72575;46.834;-71.234;2023-11-18T11:21:43;0.67;0.67;0
82823;PMS5003;72575;46.834;-71.234;2023-11-18T11:24:09;0.68;0.68;0
82823;PMS5003;72575;46.834;-71.234;2023-11-18T11:26:40;1;1;0.81
82823;PMS5003;72575;46.834;-71.234;2023-11-18T11:29:02;1.24;1.24;1
82823;PMS5003;72575;46.834;-71.234;2023-11-18T11:31:30;0;0;0
82823;PMS5003;72575;46.834;-71.234;2023-11-18T11:33:52;1.24;1.24;1
82823;PMS5003;72575;46.834;-71.234;2023-11-18T11:36:15;0.5;0.5;0
82823;PMS5003;72575;46.834;-71.234;2023-11-18T11:38:41;0.67;0.67;0.52
82823;PMS5003;72575;46.834;-71.234;2023-11-18T11:41:07;2;1.55;1.27
82823;PMS5003;72575;46.834;-71.234;2023-11-18T11:43:30;2.52;2.52;2
82823;PMS5003;72575;46.834;-71.234;2023-11-18T11:45:56;3;3;1.38
82823;PMS5003;72575;46.834;-71.234;2023-11-18T11:48:23;1.67;1.67;1
82823;PMS5003;72575;46.834;-71.234;2023-11-18T11:50:54;1.67;1.67;1
82823;PMS5003;72575;46.834;-71.234;2023-11-18T11:53:12;1.67;1;0
82823;PMS5003;72575;46.834;-71.234;2023-11-18T11:55:41;1.1;1.1;1
82823;PMS5003;72575;46.834;-71.234;2023-11-18T11:58:04;2.45;2.45;1.14
82823;PMS5003;72575;46.834;-71.234;2023-11-18T12:00:30;1;1;1
82823;PMS5003;72575;46.834;-71.234;2023-11-18T12:02:55;1.19;1.19;0.1
82823;PMS5003;72575;46.834;-71.234;2023-11-18T12:05:20;0.62;0.62;0.38
82823;PMS5003;72575;46.834;-71.234;2023-11-18T12:07:46;1.62;1.62;0.48
82823;PMS5003;72575;46.834;-71.234;2023-11-18T12:10:11;1;1;0.81
82823;PMS5003;72575;46.834;-71.234;2023-11-18T12:12:37;1.1;1;0.81
82823;PMS5003;72575;46.834;-71.234;2023-11-18T12:15:12;2;2;1
82823;PMS5003;72575;46.834;-71.234;2023-11-18T12:17:28;1.1;1.1;0.81
82823;PMS5003;72575;46.834;-71.234;2023-11-18T12:19:52;1;1;0
82823;PMS5003;72575;46.834;-71.234;2023-11-18T12:22:18;0;0;0
82823;PMS5003;72575;46.834;-71.234;2023-11-18T12:24:42;1.67;1.05;0.24
82823;PMS5003;72575;46.834;-71.234;2023-11-18T12:27:08;1.29;1.29;0
82823;PMS5003;72575;46.834;-71.234;2023-11-18T12:29:32;0.76;0.76;0.38
82823;PMS5003;72575;46.834;-71.234;2023-11-18T12:32:02;1;1;0.41
82823;PMS5003;72575;46.834;-71.234;2023-11-18T12:34:49;1.1;1.1;1
82823;PMS5003;72575;46.834;-71.234;2023-11-18T12:36:56;2.24;1.9;1
82823;PMS5003;72575;46.834;-71.234;2023-11-18T12:39:23;2.52;1.95;1
82823;PMS5003;72575;46.834;-71.234;2023-11-18T12:41:43;2.48;2.1;1.05
82823;PMS5003;72575;46.834;-71.234;2023-11-18T12:44:14;1;1;1
82823;PMS5003;72575;46.834;-71.234;2023-11-18T12:46:50;3.05;2.5;1.27
82823;PMS5003;72575;46.834;-71.234;2023-11-18T12:49:08;1.73;1.73;1
82823;PMS5003;72575;46.834;-71.234;2023-11-18T12:51:32;1.52;1.52;1
82823;PMS5003;72575;46.834;-71.234;2023-11-18T12:53:59;1;1;0.65
82823;PMS5003;72575;46.834;-71.234;2023-11-18T12:56:23;1.25;0.65;0.35
82823;PMS5003;72575;46.834;-71.234;2023-11-18T12:58:50;1;1;1
82823;PMS5003;72575;46.834;-71.234;2023-11-18T13:01:14;0.75;0.75;0.65
82823;PMS5003;72575;46.834;-71.234;2023-11-18T13:03:40;1.9;1.86;1
82823;PMS5003;72575;46.834;-71.234;2023-11-18T13:06:06;1;1;0.1
82823;PMS5003;72575;46.834;-71.234;2023-11-18T13:08:30;0.8;0.8;0.8
82823;PMS5003;72575;46.834;-71.234;2023-11-18T13:10:56;1;1;1
82823;PMS5003;72575;46.834;-71.234;2023-11-18T13:13:20;1.5;1.5;1
82823;PMS5003;72575;46.834;-71.234;2023-11-18T13:15:47;1;1;0.8
82823;PMS5003;72575;46.834;-71.234;2023-11-18T13:18:13;1;1;1
82823;PMS5003;72575;46.834;-71.234;2023-11-18T13:20:38;1.24;1.24;0.81
82823;PMS5003;72575;46.834;-71.234;2023-11-18T13:23:03;2.1;1.2;0.5
82823;PMS5003;72575;46.834;-71.234;2023-11-18T13:25:29;1.8;1.1;0.65
82823;PMS5003;72575;46.834;-71.234;2023-11-18T13:27:53;2.4;1.8;1.05
82823;PMS5003;72575;46.834;-71.234;2023-11-18T13:30:20;2.3;1.8;1
82823;PMS5003;72575;46.834;-71.234;2023-11-18T13:32:45;2.1;2;1
82823;PMS5003;72575;46.834;-71.234;2023-11-18T13:35:10;1.2;1.2;1
82823;PMS5003;72575;46.834;-71.234;2023-11-18T13:37:35;2.1;2;1
82823;PMS5003;72575;46.834;-71.234;2023-11-18T13:40:00;2;1.2;0.35
82823;PMS5003;72575;46.834;-71.234;2023-11-18T13:42:25;2;2;1.05
82823;PMS5003;72575;46.834;-71.234;2023-11-18T13:44:51;2.5;2.2;1.05
82823;PMS5003;72575;46.834;-71.234;2023-11-18T13:47:18;2.25;2.25;1.4
82823;PMS5003;72575;46.834;-71.234;2023-11-18T13:49:43;1.35;1.35;0.5
82823;PMS5003;72575;46.834;-71.234;2023-11-18T13:52:07;1.35;1.35;1
82823;PMS5003;72575;46.834;-71.234;2023-11-18T13:54:34;1.81;1.19;0.67
82823;PMS5003;72575;46.834;-71.234;2023-11-18T13:56:59;1;1;0.65
82823;PMS5003;72575;46.834;-71.234;2023-11-18T13:59:26;1.2;1.2;0
82823;PMS5003;72575;46.834;-71.234;2023-11-18T14:01:52;1.76;1.76;0.76
82823;PMS5003;72575;46.834;-71.234;2023-11-18T14:04:17;1.5;1.5;1
82823;PMS5003;72575;46.834;-71.234;2023-11-18T14:06:44;1.1;0.8;0.2
82823;PMS5003;72575;46.834;-71.234;2023-11-18T14:09:09;1;1;0.5
82823;PMS5003;72575;46.834;-71.234;2023-11-18T14:11:35;1.14;1.14;1
82823;PMS5003;72575;46.834;-71.234;2023-11-18T14:13:58;1.6;1.6;1
82823;PMS5003;72575;46.834;-71.234;2023-11-18T14:16:26;1.5;1.1;1
82823;PMS5003;72575;46.834;-71.234;2023-11-18T14:18:51;0.9;0.9;0
82823;PMS5003;72575;46.834;-71.234;2023-11-18T14:21:14;1.95;1.95;1
82823;PMS5003;72575;46.834;-71.234;2023-11-18T14:23:39;1.5;1.5;1
82823;PMS5003;72575;46.834;-71.234;2023-11-18T14:26:05;1.2;1.2;0.25
82823;PMS5003;72575;46.834;-71.234;2023-11-18T14:28:32;1;1;1
82823;PMS5003;72575;46.834;-71.234;2023-11-18T14:30:56;1.75;1.25;1
82823;PMS5003;72575;46.834;-71.234;2023-11-18T14:33:21;1.05;1.05;1
82823;PMS5003;72575;46.834;-71.234;2023-11-18T14:35:49;1;1;0.2